createdAt,value
2022-12-04T00:00:36.649Z,71.77
2022-12-04T00:03:05.919Z,72.18
2022-12-04T00:05:33.725Z,71.92
2022-12-04T00:08:01.515Z,71.68
2022-12-04T00:10:29.430Z,72.20
2022-12-04T00:12:57.195Z,72.11
2022-12-04T00:15:26.279Z,71.88
2022-12-04T00:17:54.675Z,72.49
2022-12-04T00:20:24.097Z,71.90
2022-12-04T00:22:51.844Z,72.26
2022-12-04T00:25:19.867Z,72.13
2022-12-04T00:27:47.662Z,72.16
2022-12-04T00:30:15.616Z,72.21
2022-12-04T00:32:43.382Z,71.83
2022-12-04T00:35:11.276Z,71.55
2022-12-04T00:37:40.541Z,71.88
2022-12-04T00:40:09.479Z,71.30
2022-12-04T00:42:37.389Z,71.44
2022-12-04T00:45:05.721Z,71.02
2022-12-04T00:47:33.493Z,71.61
2022-12-04T00:50:01.256Z,71.12
2022-12-04T00:52:29.275Z,71.53
2022-12-04T00:54:58.641Z,71.54
2022-12-04T00:57:26.426Z,71.33
2022-12-04T00:59:54.371Z,71.81
2022-12-04T01:02:22.525Z,71.86
2022-12-04T01:04:50.350Z,71.98
2022-12-04T01:07:18.226Z,72.38
2022-12-04T01:09:46.130Z,72.59
2022-12-04T01:12:21.132Z,72.39
2022-12-04T01:14:53.633Z,71.78
2022-12-04T01:17:27.127Z,72.19
2022-12-04T01:19:58.342Z,72.08
2022-12-04T01:22:26.337Z,72.36
2022-12-04T01:24:56.635Z,72.50
2022-12-04T01:27:26.958Z,72.73
2022-12-04T01:29:55.099Z,72.50
2022-12-04T01:32:25.620Z,72.48
2022-12-04T01:34:53.510Z,72.68
2022-12-04T01:37:21.243Z,72.21
2022-12-04T01:39:51.238Z,72.29
2022-12-04T01:42:19.270Z,72.42
2022-12-04T01:45:20.326Z,72.18
2022-12-04T01:47:49.647Z,72.51
2022-12-04T01:50:17.536Z,72.17
2022-12-04T01:52:45.359Z,72.18
2022-12-04T01:55:13.597Z,72.29
2022-12-04T01:57:42.687Z,72.10
2022-12-04T02:00:15.304Z,72.35
2022-12-04T02:02:48.451Z,71.86
2022-12-04T02:05:20.967Z,72.01
2022-12-04T02:07:50.460Z,72.20
2022-12-04T02:10:24.433Z,72.52
2022-12-04T02:13:00.330Z,72.49
2022-12-04T02:15:36.905Z,72.75
2022-12-04T02:18:11.202Z,72.53
2022-12-04T02:20:46.878Z,72.38
2022-12-04T02:23:32.944Z,72.83
2022-12-04T02:26:06.413Z,73.24
2022-12-04T02:28:41.594Z,73.22
2022-12-04T02:31:15.953Z,73.88
2022-12-04T02:33:49.215Z,73.36
2022-12-04T02:36:22.008Z,73.12
2022-12-04T02:38:54.525Z,73.19
2022-12-04T02:41:25.562Z,73.09
2022-12-04T02:43:58.604Z,73.56
2022-12-04T02:46:30.321Z,73.72
2022-12-04T02:49:03.152Z,73.85
2022-12-04T02:51:35.773Z,73.81
2022-12-04T02:54:12.089Z,73.51
2022-12-04T02:56:45.139Z,73.58
2022-12-04T02:59:20.305Z,73.24
2022-12-04T03:01:52.738Z,73.30
2022-12-04T03:04:22.291Z,73.36
2022-12-04T03:06:53.723Z,73.81
2022-12-04T03:09:26.042Z,73.53
2022-12-04T03:11:58.340Z,74.22
2022-12-04T03:14:33.161Z,73.83
2022-12-04T03:17:06.901Z,74.19
2022-12-04T03:19:40.254Z,73.87
2022-12-04T03:22:11.725Z,74.39
2022-12-04T03:24:44.641Z,74.15
2022-12-04T03:27:16.719Z,74.13
2022-12-04T03:29:49.909Z,73.75
2022-12-04T03:32:26.265Z,73.91
2022-12-04T03:35:00.046Z,73.64
2022-12-04T03:37:35.285Z,74.44
2022-12-04T03:40:10.472Z,74.06
2022-12-04T03:42:44.384Z,74.24
2022-12-04T03:45:22.268Z,74.24
2022-12-04T03:47:58.075Z,74.27
2022-12-04T03:50:33.608Z,74.72
2022-12-04T03:53:08.134Z,74.15
2022-12-04T03:55:42.959Z,74.56
2022-12-04T03:58:15.208Z,74.45
2022-12-04T04:00:45.616Z,74.04
2022-12-04T04:03:17.799Z,73.68
2022-12-04T04:05:52.580Z,74.55
2022-12-04T04:08:28.017Z,73.68
2022-12-04T04:11:00.121Z,73.39
2022-12-04T04:13:50.839Z,74.01
2022-12-04T04:16:41.720Z,74.20
2022-12-04T04:19:28.013Z,73.96
2022-12-04T04:22:14.723Z,74.00
2022-12-04T04:24:46.091Z,74.28
2022-12-04T04:27:14.415Z,74.14
2022-12-04T04:29:49.286Z,73.58
2022-12-04T04:32:32.096Z,73.64
2022-12-04T04:35:10.375Z,73.96
2022-12-04T04:37:48.215Z,73.91
2022-12-04T04:40:22.710Z,73.71
2022-12-04T04:42:56.579Z,73.69
2022-12-04T04:45:28.746Z,73.19
2022-12-04T04:48:04.130Z,73.21
2022-12-04T04:50:34.111Z,73.22
2022-12-04T04:53:08.156Z,73.39
2022-12-04T04:55:37.196Z,73.41
2022-12-04T04:58:10.123Z,73.89
2022-12-04T05:00:38.746Z,73.99
2022-12-04T05:03:07.976Z,73.56
2022-12-04T05:05:35.803Z,73.65
2022-12-04T05:08:03.711Z,73.83
2022-12-04T05:10:31.522Z,73.53
2022-12-04T05:12:59.292Z,73.54
2022-12-04T05:15:27.058Z,73.22
2022-12-04T05:17:54.771Z,73.31
2022-12-04T05:20:23.838Z,74.07
2022-12-04T05:22:51.624Z,74.24
2022-12-04T05:25:19.362Z,73.71
2022-12-04T05:27:47.173Z,73.96
2022-12-04T05:30:15.330Z,73.76
2022-12-04T05:32:43.216Z,74.27
2022-12-04T05:35:11.683Z,74.28
2022-12-04T05:37:41.743Z,73.77
2022-12-04T05:40:10.640Z,73.49
2022-12-04T05:42:38.374Z,73.74
2022-12-04T05:45:07.136Z,73.34
2022-12-04T05:47:39.683Z,73.79
2022-12-04T05:50:07.778Z,73.49
2022-12-04T05:52:35.821Z,73.66
2022-12-04T05:55:05.836Z,72.89
2022-12-04T05:57:33.624Z,73.23
2022-12-04T06:00:01.353Z,73.41
2022-12-04T06:02:29.191Z,73.46
2022-12-04T06:04:57.074Z,73.68
2022-12-04T06:07:24.844Z,73.26
2022-12-04T06:09:56.632Z,73.45
2022-12-04T06:12:26.163Z,73.17
2022-12-04T06:14:53.894Z,73.14
2022-12-04T06:17:21.696Z,73.31
2022-12-04T06:19:49.688Z,73.04
2022-12-04T06:22:17.696Z,73.23
2022-12-04T06:24:45.583Z,73.11
2022-12-04T06:27:29.042Z,72.87
2022-12-04T06:29:58.714Z,72.82
2022-12-04T06:32:26.805Z,72.63
2022-12-04T06:34:55.929Z,72.74
2022-12-04T06:37:25.986Z,72.51
2022-12-04T06:39:54.027Z,72.84
2022-12-04T06:42:21.993Z,72.62
2022-12-04T06:44:50.365Z,72.76
2022-12-04T06:47:19.563Z,73.07
2022-12-04T06:49:50.615Z,73.01
2022-12-04T06:52:18.987Z,72.53
2022-12-04T06:54:46.806Z,72.61
2022-12-04T06:57:14.594Z,72.17
2022-12-04T06:59:42.340Z,72.73
2022-12-04T07:02:10.718Z,72.41
2022-12-04T07:04:39.884Z,72.78
2022-12-04T07:07:09.922Z,73.21
2022-12-04T07:09:37.806Z,72.59
2022-12-04T07:12:06.314Z,73.14
2022-12-04T07:14:34.061Z,73.07
2022-12-04T07:17:02.019Z,73.04
2022-12-04T07:19:29.912Z,72.74
2022-12-04T07:21:59.259Z,73.05
2022-12-04T07:24:29.261Z,73.02
2022-12-04T07:26:57.131Z,73.02
2022-12-04T07:29:25.017Z,72.98
2022-12-04T07:31:52.971Z,72.85
2022-12-04T07:34:20.961Z,73.03
2022-12-04T07:36:48.789Z,73.08
2022-12-04T07:39:18.171Z,73.27
2022-12-04T07:41:45.932Z,72.70
2022-12-04T07:44:13.671Z,73.11
2022-12-04T07:46:41.456Z,73.47
2022-12-04T07:49:12.871Z,72.87
2022-12-04T07:51:40.673Z,72.96
2022-12-04T07:54:09.379Z,72.99
2022-12-04T07:56:38.788Z,72.86
2022-12-04T07:59:06.820Z,72.95
2022-12-04T08:01:34.847Z,73.25
2022-12-04T08:04:04.482Z,72.96
2022-12-04T08:06:35.198Z,73.06
2022-12-04T08:09:09.830Z,73.06
2022-12-04T08:11:39.845Z,72.88
2022-12-04T08:14:09.031Z,73.19
2022-12-04T08:16:37.077Z,73.37
2022-12-04T08:19:05.465Z,72.74
2022-12-04T08:21:33.857Z,72.92
2022-12-04T08:24:03.224Z,72.63
2022-12-04T08:26:33.624Z,73.26
2022-12-04T08:29:03.890Z,73.22
2022-12-04T08:31:34.081Z,72.65
2022-12-04T08:34:04.714Z,72.86
2022-12-04T08:36:33.347Z,72.89
2022-12-04T08:39:03.971Z,72.91
2022-12-04T08:41:32.023Z,73.01
2022-12-04T08:44:01.029Z,72.69
2022-12-04T08:46:30.715Z,72.90
2022-12-04T08:49:00.770Z,72.51
2022-12-04T08:51:30.723Z,72.54
2022-12-04T08:54:00.654Z,73.01
2022-12-04T08:56:29.850Z,72.55
2022-12-04T08:58:58.216Z,72.74
2022-12-04T09:01:27.080Z,72.36
2022-12-04T09:04:00.795Z,72.56
2022-12-04T09:06:28.873Z,72.93
2022-12-04T09:08:59.189Z,72.52
2022-12-04T09:11:29.591Z,72.69
2022-12-04T09:13:57.684Z,72.59
2022-12-04T09:16:27.220Z,72.58
2022-12-04T09:18:57.477Z,72.09
2022-12-04T09:21:26.327Z,72.48
2022-12-04T09:23:54.262Z,72.00
2022-12-04T09:26:25.545Z,72.25
2022-12-04T09:28:55.157Z,72.23
2022-12-04T09:31:24.310Z,71.73
2022-12-04T09:33:52.463Z,71.65
2022-12-04T09:36:21.805Z,72.22
2022-12-04T09:38:51.738Z,71.83
2022-12-04T09:41:53.304Z,71.73
2022-12-04T09:44:25.074Z,72.29
2022-12-04T09:47:05.798Z,72.09
2022-12-04T09:49:40.839Z,72.54
2022-12-04T09:52:22.514Z,72.31
2022-12-04T09:54:53.166Z,72.17
2022-12-04T09:57:29.702Z,72.11
2022-12-04T10:00:06.041Z,71.70
2022-12-04T10:02:37.816Z,71.82
2022-12-04T10:05:16.935Z,71.57
2022-12-04T10:10:42.583Z,71.63
2022-12-04T10:13:31.052Z,72.25
2022-12-04T10:16:12.307Z,71.94
2022-12-04T10:18:49.282Z,72.45
2022-12-04T10:21:31.436Z,72.07
2022-12-04T10:24:22.154Z,72.32
2022-12-04T10:26:50.359Z,71.84
2022-12-04T10:29:22.923Z,72.32
2022-12-04T10:31:52.864Z,72.01
2022-12-04T10:34:24.644Z,72.52
2022-12-04T10:36:55.005Z,72.12
2022-12-04T10:39:27.156Z,72.48
2022-12-04T10:42:00.182Z,72.36
2022-12-04T10:44:28.315Z,72.42
2022-12-04T10:46:59.971Z,72.45
2022-12-04T10:49:37.310Z,72.85
2022-12-04T10:52:06.030Z,72.71
2022-12-04T10:54:37.340Z,72.00
2022-12-04T10:57:08.347Z,72.16
2022-12-04T10:59:41.786Z,72.40
2022-12-04T11:02:21.159Z,72.54
2022-12-04T11:04:55.399Z,72.38
2022-12-04T11:07:25.935Z,72.64
2022-12-04T11:10:06.237Z,72.28
2022-12-04T11:12:34.923Z,72.06
2022-12-04T11:15:15.124Z,72.76
2022-12-04T11:17:43.004Z,72.48
2022-12-04T11:20:18.544Z,72.46
2022-12-04T11:22:52.553Z,72.18
2022-12-04T11:25:24.040Z,72.52
2022-12-04T11:27:54.219Z,72.10
2022-12-04T11:30:28.640Z,72.61
2022-12-04T11:32:59.329Z,72.25
2022-12-04T11:35:29.521Z,72.01
2022-12-04T11:38:04.040Z,72.39
2022-12-04T11:40:33.608Z,73.05
2022-12-04T11:43:05.706Z,72.70
2022-12-04T11:45:34.053Z,72.98
2022-12-04T11:48:04.282Z,73.02
2022-12-04T11:50:41.731Z,73.10
2022-12-04T11:53:17.103Z,73.16
2022-12-04T11:56:05.746Z,72.74
2022-12-04T11:58:48.617Z,72.82
2022-12-04T12:01:27.324Z,72.62
2022-12-04T12:04:09.070Z,73.22
2022-12-04T12:06:38.950Z,73.31
2022-12-04T12:09:21.143Z,73.16
2022-12-04T12:11:58.480Z,73.14
2022-12-04T12:14:34.412Z,73.39
2022-12-04T12:17:12.628Z,73.45
2022-12-04T12:19:50.467Z,72.80
2022-12-04T12:22:29.733Z,73.08
2022-12-04T12:25:07.202Z,72.92
2022-12-04T12:27:53.207Z,72.56
2022-12-04T12:30:22.623Z,72.34
2022-12-04T12:33:08.458Z,72.62
2022-12-04T12:35:43.060Z,72.59
2022-12-04T12:38:12.851Z,72.45
2022-12-04T12:40:43.884Z,72.38
2022-12-04T12:43:17.275Z,72.79
2022-12-04T12:45:52.195Z,73.18
2022-12-04T12:48:29.635Z,73.08
2022-12-04T12:51:28.421Z,72.80
2022-12-04T12:53:53.611Z,73.02
2022-12-04T12:56:31.136Z,73.02
2022-12-04T12:59:06.243Z,73.07
2022-12-04T13:01:42.978Z,72.87
2022-12-04T13:04:15.619Z,72.86
2022-12-04T13:06:46.720Z,72.96
2022-12-04T13:09:21.759Z,72.99
2022-12-04T13:11:53.415Z,72.89
2022-12-04T13:14:22.691Z,72.99
2022-12-04T13:16:55.587Z,72.41
2022-12-04T13:19:29.957Z,72.66
2022-12-04T13:22:08.866Z,72.55
2022-12-04T13:24:51.995Z,72.87
2022-12-04T13:27:34.722Z,72.87
2022-12-04T13:30:09.019Z,73.02
2022-12-04T13:33:09.708Z,72.98
2022-12-04T13:35:56.841Z,72.71
2022-12-04T13:38:34.042Z,73.02
2022-12-04T13:41:05.614Z,73.06
2022-12-04T13:43:36.544Z,73.43
2022-12-04T13:46:07.531Z,73.38
2022-12-04T13:48:40.297Z,73.41
2022-12-04T13:51:24.511Z,73.66
2022-12-04T13:54:02.984Z,73.35
2022-12-04T13:56:32.023Z,73.57
2022-12-04T13:59:02.588Z,74.20
2022-12-04T14:01:39.505Z,74.10
2022-12-04T14:04:09.361Z,73.55
2022-12-04T14:06:40.302Z,73.81
2022-12-04T14:09:19.407Z,73.58
2022-12-04T14:11:52.826Z,73.65
2022-12-04T14:14:34.638Z,74.04
2022-12-04T14:17:02.940Z,74.25
2022-12-04T14:19:35.589Z,73.66
2022-12-04T14:22:03.931Z,73.90
2022-12-04T14:24:36.132Z,73.79
2022-12-04T14:27:25.246Z,73.42
2022-12-04T14:29:58.346Z,73.54
2022-12-04T14:32:34.640Z,73.75
2022-12-04T14:35:04.890Z,74.15
2022-12-04T14:37:37.363Z,73.56
2022-12-04T14:40:07.287Z,73.44
2022-12-04T14:42:39.194Z,73.76
2022-12-04T14:45:30.790Z,73.62
2022-12-04T14:48:30.891Z,73.63
2022-12-04T14:51:09.271Z,73.51
2022-12-04T14:53:43.562Z,73.55
2022-12-04T14:56:30.515Z,73.92
2022-12-04T14:58:59.777Z,73.83
2022-12-04T15:01:37.364Z,73.78
2022-12-04T15:04:14.905Z,73.51
2022-12-04T15:06:48.071Z,73.73
2022-12-04T15:09:37.558Z,73.52
2022-12-04T15:12:35.678Z,73.91
2022-12-04T15:15:10.698Z,73.66
2022-12-04T15:17:38.534Z,74.33
2022-12-04T15:20:17.082Z,74.08
2022-12-04T15:22:47.072Z,73.83
2022-12-04T15:25:18.861Z,73.75
2022-12-04T15:27:48.543Z,73.77
2022-12-04T15:30:18.708Z,73.76
2022-12-04T15:32:48.212Z,73.49
2022-12-04T15:35:23.876Z,73.33
2022-12-04T15:37:57.306Z,73.75
2022-12-04T15:40:27.576Z,73.83
2022-12-04T15:42:56.364Z,73.74
2022-12-04T15:45:31.660Z,73.48
2022-12-04T15:47:59.480Z,73.37
2022-12-04T15:50:29.482Z,73.83
2022-12-04T15:53:02.158Z,73.44
2022-12-04T15:55:32.706Z,73.66
2022-12-04T15:58:03.233Z,73.60
2022-12-04T16:00:33.832Z,73.98
2022-12-04T16:03:02.414Z,73.73
2022-12-04T16:05:36.531Z,73.56
2022-12-04T16:08:27.572Z,73.70
2022-12-04T16:11:00.714Z,73.82
2022-12-04T16:13:31.467Z,73.69
2022-12-04T16:16:01.501Z,73.45
2022-12-04T16:18:29.994Z,73.60
2022-12-04T16:20:58.168Z,73.80
2022-12-04T16:23:28.292Z,73.78
2022-12-04T16:25:56.378Z,74.21
2022-12-04T16:28:24.463Z,74.21
2022-12-04T16:31:03.477Z,74.51
2022-12-04T16:33:38.974Z,74.61
2022-12-04T16:36:29.818Z,74.40
2022-12-04T16:38:59.548Z,74.42
2022-12-04T16:41:27.548Z,74.43
2022-12-04T16:44:00.550Z,74.40
2022-12-04T16:46:30.772Z,74.31
2022-12-04T16:49:02.810Z,74.45
2022-12-04T16:51:33.897Z,74.27
2022-12-04T16:54:04.403Z,74.50
2022-12-04T16:56:33.513Z,74.84
2022-12-04T16:59:01.379Z,74.77
2022-12-04T17:01:35.071Z,74.93
2022-12-04T17:04:03.090Z,74.64
2022-12-04T17:06:31.918Z,74.72
2022-12-04T17:09:02.662Z,74.61
2022-12-04T17:11:32.154Z,74.52
2022-12-04T17:14:02.156Z,74.29
2022-12-04T17:16:32.748Z,74.52
2022-12-04T17:19:00.680Z,74.46
2022-12-04T17:21:28.536Z,74.46
2022-12-04T17:23:57.649Z,74.39
2022-12-04T17:26:25.508Z,74.46
2022-12-04T17:28:54.805Z,74.90
2022-12-04T17:31:25.370Z,75.07
2022-12-04T17:33:54.013Z,74.81
2022-12-04T17:36:28.057Z,75.12
2022-12-04T17:39:04.575Z,75.11
2022-12-04T17:41:37.369Z,75.49
2022-12-04T17:44:06.785Z,75.28
2022-12-04T17:46:34.951Z,75.48
2022-12-04T17:49:07.095Z,75.49
2022-12-04T17:51:37.096Z,75.24
2022-12-04T17:54:05.358Z,74.96
2022-12-04T17:56:33.404Z,74.93
2022-12-04T17:59:16.205Z,75.51
2022-12-04T18:01:45.283Z,75.26
2022-12-04T18:04:13.260Z,75.25
2022-12-04T18:06:44.152Z,75.39
2022-12-04T18:09:13.518Z,75.62
2022-12-04T18:11:43.258Z,75.59
2022-12-04T18:14:15.386Z,75.88
2022-12-04T18:16:45.715Z,76.06
2022-12-04T18:19:22.393Z,75.75
2022-12-04T18:21:56.259Z,76.04
2022-12-04T18:24:29.238Z,75.76
2022-12-04T18:26:57.311Z,76.46
2022-12-04T18:29:27.697Z,76.90
2022-12-04T18:31:56.169Z,76.96
2022-12-04T18:34:24.771Z,76.80
2022-12-04T18:36:52.850Z,76.94
2022-12-04T18:39:22.830Z,76.86
2022-12-04T18:44:53.051Z,77.87
2022-12-04T18:47:38.109Z,77.14
2022-12-04T18:50:07.377Z,76.97
2022-12-04T18:52:38.541Z,76.96
2022-12-04T18:55:10.574Z,77.54
2022-12-04T18:58:45.422Z,77.36
2022-12-04T19:03:39.181Z,77.59
2022-12-04T19:06:08.228Z,78.05
2022-12-04T19:08:43.205Z,78.05
2022-12-04T19:11:16.585Z,77.60
2022-12-04T19:13:51.831Z,77.94
2022-12-04T19:16:44.464Z,78.43
2022-12-04T19:19:36.349Z,78.58
2022-12-04T19:23:00.402Z,78.19
2022-12-04T19:25:35.088Z,78.28
2022-12-04T19:31:09.864Z,78.37
2022-12-04T19:33:39.538Z,78.31
2022-12-04T19:36:09.748Z,79.03
2022-12-04T19:38:39.755Z,79.25
2022-12-04T19:41:10.587Z,78.74
2022-12-04T19:43:39.078Z,79.14
2022-12-04T19:46:09.421Z,78.62
2022-12-04T19:48:40.348Z,78.97
2022-12-04T19:51:12.213Z,78.86
2022-12-04T19:53:44.810Z,78.96
2022-12-04T19:56:14.971Z,78.57
2022-12-04T19:58:43.639Z,78.64
2022-12-04T20:01:14.502Z,78.33
2022-12-04T20:03:43.225Z,78.77
2022-12-04T20:06:18.170Z,78.19
2022-12-04T20:08:47.322Z,78.24
2022-12-04T20:11:18.722Z,78.11
2022-12-04T20:13:48.597Z,78.34
2022-12-04T20:16:19.637Z,78.58
2022-12-04T20:18:49.255Z,78.41
2022-12-04T20:21:19.075Z,78.39
2022-12-04T20:23:50.003Z,77.96
2022-12-04T20:26:20.948Z,78.54
2022-12-04T20:28:50.747Z,78.46
2022-12-04T20:31:22.456Z,78.76
2022-12-04T20:33:52.823Z,78.21
2022-12-04T20:36:41.219Z,78.23
2022-12-04T20:39:11.015Z,78.62
2022-12-04T20:41:40.313Z,78.76
2022-12-04T20:44:19.130Z,78.81
2022-12-04T20:46:56.935Z,78.37
2022-12-04T20:49:26.900Z,78.21
2022-12-04T20:52:33.646Z,78.31
2022-12-04T20:55:03.768Z,78.20
2022-12-04T20:57:33.180Z,78.20
2022-12-04T21:00:01.797Z,78.62
2022-12-04T21:02:30.108Z,78.27
2022-12-04T21:04:58.138Z,78.57
2022-12-04T21:07:27.547Z,77.97
2022-12-04T21:09:56.177Z,78.33
2022-12-04T21:12:43.336Z,77.88
2022-12-04T21:15:28.975Z,77.67
2022-12-04T21:17:56.906Z,77.70
2022-12-04T21:20:24.999Z,77.99
2022-12-04T21:22:54.444Z,78.13
2022-12-04T21:25:22.405Z,77.96
2022-12-04T21:27:50.341Z,78.41
2022-12-04T21:30:18.206Z,77.99
2022-12-04T21:32:46.024Z,78.25
2022-12-04T21:35:13.928Z,78.48
2022-12-04T21:37:42.002Z,78.55
2022-12-04T21:40:12.022Z,78.49
2022-12-04T21:42:40.347Z,78.05
2022-12-04T21:45:08.982Z,78.60
2022-12-04T21:47:39.653Z,78.97
2022-12-04T21:50:11.052Z,79.10
2022-12-04T21:52:39.057Z,79.34
2022-12-04T21:55:08.785Z,79.11
2022-12-04T21:57:39.349Z,78.85
2022-12-04T22:00:10.390Z,79.04
2022-12-04T22:02:40.066Z,78.93
2022-12-04T22:05:08.780Z,79.35
2022-12-04T22:07:36.632Z,79.50
2022-12-04T22:10:10.366Z,79.51
2022-12-04T22:12:49.943Z,79.45
2022-12-04T22:15:18.504Z,79.70
2022-12-04T22:17:46.504Z,79.44
2022-12-04T22:20:14.466Z,79.40
2022-12-04T22:22:42.318Z,79.55
2022-12-04T22:25:10.863Z,79.25
2022-12-04T22:27:40.139Z,79.48
2022-12-04T22:30:09.267Z,79.54
2022-12-04T22:32:37.111Z,79.38
2022-12-04T22:35:05.280Z,79.57
2022-12-04T22:37:33.296Z,79.56
2022-12-04T22:40:01.715Z,79.75
2022-12-04T22:42:32.194Z,79.65
2022-12-04T22:45:01.765Z,79.47
2022-12-04T22:47:31.440Z,79.67
2022-12-04T22:49:59.719Z,79.54
2022-12-04T22:52:31.139Z,79.70
2022-12-04T22:54:59.140Z,79.52
2022-12-04T22:57:27.850Z,79.19
2022-12-04T22:59:56.153Z,79.48
2022-12-04T23:02:25.754Z,79.20
2022-12-04T23:04:53.990Z,79.30
2022-12-04T23:07:22.184Z,79.24
2022-12-04T23:09:50.142Z,79.20
2022-12-04T23:12:18.266Z,79.16
2022-12-04T23:14:46.391Z,78.94
2022-12-04T23:17:14.456Z,79.33
2022-12-04T23:19:44.107Z,79.33
2022-12-04T23:22:12.251Z,79.10
2022-12-04T23:24:41.463Z,79.01
2022-12-04T23:27:09.731Z,78.92
2022-12-04T23:29:53.132Z,79.02
2022-12-04T23:32:21.914Z,78.95
2022-12-04T23:34:53.105Z,79.27
2022-12-04T23:37:21.202Z,78.84
2022-12-04T23:39:49.263Z,78.55
2022-12-04T23:42:17.223Z,78.27
2022-12-04T23:44:47.786Z,78.40
2022-12-04T23:47:15.834Z,79.12
2022-12-04T23:49:45.183Z,79.21
2022-12-04T23:52:14.727Z,79.34
2022-12-04T23:54:42.709Z,79.19
2022-12-04T23:57:10.914Z,79.37
2022-12-04T23:59:39.217Z,79.02
